Aviation Digital Data Service (ADDS)

Output produced by TAFs form (1815 UTC 25 May 2017)
found at http://www.aviationweather.gov/adds/tafs/
 
KPOU 251741Z 2518/2618 05006KT 4SM -RA BR OVC013 WS020/10035KT 
     TEMPO 2518/2521 2SM -RA BR BKN009 
     FM252100 06007KT 5SM -RA BR BKN008 OVC012 
     FM260000 07006KT 4SM -DZ BR OVC008 
     FM260500 36005KT 2SM -RA BR OVC006 
     FM261100 32004KT 3SM -DZ BKN006 OVC012 
     FM261500 30006KT 5SM BR SCT006 OVC015